createdAt,value
2023-04-21T00:01:39.572Z,10.11
2023-04-21T00:04:08.435Z,10.10
2023-04-21T00:06:36.909Z,10.02
2023-04-21T00:09:05.550Z,10.00
2023-04-21T00:11:33.402Z,9.97
2023-04-21T00:14:01.254Z,9.92
2023-04-21T00:16:29.282Z,9.89
2023-04-21T00:18:57.094Z,9.84
2023-04-21T00:21:25.409Z,9.83
2023-04-21T00:23:53.296Z,9.85
2023-04-21T00:26:21.302Z,9.83
2023-04-21T00:28:49.523Z,9.80
2023-04-21T00:31:17.630Z,9.81
2023-04-21T00:33:45.777Z,9.76
2023-04-21T00:36:13.762Z,9.74
2023-04-21T00:38:41.576Z,9.71
2023-04-21T00:41:09.949Z,9.67
2023-04-21T00:44:02.849Z,9.63
2023-04-21T00:46:33.651Z,9.60
2023-04-21T00:49:05.976Z,9.56
2023-04-21T00:51:35.806Z,9.55
2023-04-21T00:54:08.236Z,9.53
2023-04-21T00:56:37.017Z,9.50
2023-04-21T00:59:05.040Z,9.49
2023-04-21T01:01:34.500Z,9.48
2023-04-21T01:04:04.801Z,9.43
2023-04-21T01:06:36.775Z,9.41
2023-04-21T01:09:05.390Z,9.37
2023-04-21T01:11:33.529Z,9.35
2023-04-21T01:14:01.607Z,9.32
2023-04-21T01:16:29.777Z,9.29
2023-04-21T01:18:59.241Z,9.27
2023-04-21T01:21:29.116Z,9.20
2023-04-21T01:23:57.632Z,9.18
2023-04-21T01:26:25.576Z,9.13
2023-04-21T01:28:57.343Z,9.12
2023-04-21T01:31:27.393Z,9.11
2023-04-21T01:33:55.716Z,9.10
2023-04-21T01:36:23.621Z,9.11
2023-04-21T01:38:53.738Z,9.09
2023-04-21T01:41:23.648Z,9.07
2023-04-21T01:43:51.570Z,9.06
2023-04-21T01:46:21.074Z,9.01
2023-04-21T01:48:49.134Z,8.96
2023-04-21T01:51:17.057Z,8.91
2023-04-21T01:53:45.252Z,8.86
2023-04-21T01:56:15.968Z,8.79
2023-04-21T01:58:43.774Z,8.74
2023-04-21T02:01:11.705Z,8.72
2023-04-21T02:03:40.708Z,8.71
2023-04-21T02:06:09.533Z,8.63
2023-04-21T02:08:37.408Z,8.52
2023-04-21T02:11:05.336Z,8.46
2023-04-21T02:13:33.176Z,8.33
2023-04-21T02:16:12.704Z,8.23
2023-04-21T02:18:41.704Z,8.13
2023-04-21T02:21:09.555Z,8.04
2023-04-21T02:23:37.477Z,7.99
2023-04-21T02:26:05.513Z,7.91
2023-04-21T02:28:33.553Z,7.82
2023-04-21T02:31:01.494Z,7.75
2023-04-21T02:33:29.940Z,7.69
2023-04-21T02:35:57.855Z,7.67
2023-04-21T02:38:25.672Z,7.64
2023-04-21T02:40:53.643Z,7.60
2023-04-21T02:43:21.643Z,7.55
2023-04-21T02:45:51.179Z,7.45
2023-04-21T02:48:28.483Z,7.34
2023-04-21T02:50:56.410Z,7.29
2023-04-21T02:53:24.297Z,7.25
2023-04-21T02:55:52.966Z,7.20
2023-04-21T02:58:20.849Z,7.19
2023-04-21T03:00:48.865Z,7.13
2023-04-21T03:03:17.116Z,7.07
2023-04-21T03:05:45.278Z,7.10
2023-04-21T03:08:13.464Z,7.05
2023-04-21T03:10:41.537Z,7.02
2023-04-21T03:13:09.570Z,7.00
2023-04-21T03:15:37.488Z,6.97
2023-04-21T03:18:05.958Z,6.92
2023-04-21T03:20:34.102Z,6.87
2023-04-21T03:23:01.979Z,6.83
2023-04-21T03:25:29.836Z,6.78
2023-04-21T03:27:57.811Z,6.78
2023-04-21T03:30:26.788Z,6.78
2023-04-21T03:32:58.984Z,6.74
2023-04-21T03:35:27.673Z,6.58
2023-04-21T03:37:55.623Z,6.51
2023-04-21T03:40:23.618Z,6.48
2023-04-21T03:42:51.706Z,6.42
2023-04-21T03:45:22.618Z,6.42
2023-04-21T03:47:55.763Z,6.43
2023-04-21T03:50:23.939Z,6.45
2023-04-21T03:52:51.777Z,6.45
2023-04-21T03:55:19.754Z,6.49
2023-04-21T03:57:47.662Z,6.55
2023-04-21T04:00:16.170Z,6.60
2023-04-21T04:02:44.204Z,6.61
2023-04-21T04:05:12.578Z,6.60
2023-04-21T04:07:40.816Z,6.60
2023-04-21T04:10:08.823Z,6.60
2023-04-21T04:12:36.813Z,6.60
2023-04-21T04:15:05.062Z,6.56
2023-04-21T04:17:32.976Z,6.52
2023-04-21T04:20:01.953Z,6.47
2023-04-21T04:22:29.762Z,6.44
2023-04-21T04:24:59.801Z,6.45
2023-04-21T04:27:28.651Z,6.51
2023-04-21T04:29:57.743Z,6.59
2023-04-21T04:32:28.759Z,6.67
2023-04-21T04:34:57.115Z,6.78
2023-04-21T04:37:25.596Z,6.85
2023-04-21T04:39:54.439Z,6.94
2023-04-21T04:42:22.290Z,7.08
2023-04-21T04:44:54.132Z,7.13
2023-04-21T04:47:22.041Z,7.19
2023-04-21T04:49:49.998Z,7.28
2023-04-21T04:52:17.910Z,7.35
2023-04-21T04:54:45.864Z,7.40
2023-04-21T04:57:13.651Z,7.48
2023-04-21T04:59:41.565Z,7.58
2023-04-21T05:02:10.689Z,7.69
2023-04-21T05:04:39.519Z,7.83
2023-04-21T05:07:07.978Z,7.95
2023-04-21T05:09:35.987Z,8.08
2023-04-21T05:12:04.045Z,8.21
2023-04-21T05:14:31.934Z,8.32
2023-04-21T05:17:00.030Z,8.42
2023-04-21T05:19:28.208Z,8.53
2023-04-21T05:22:02.722Z,8.63
2023-04-21T05:24:30.609Z,8.72
2023-04-21T05:26:58.517Z,8.82
2023-04-21T05:29:26.467Z,9.02
2023-04-21T05:31:54.389Z,9.12
2023-04-21T05:34:22.323Z,9.23
2023-04-21T05:36:50.326Z,9.40
2023-04-21T05:39:18.549Z,9.50
2023-04-21T05:41:46.454Z,9.60
2023-04-21T05:44:18.321Z,9.69
2023-04-21T05:46:46.404Z,9.80
2023-04-21T05:49:14.325Z,9.94
2023-04-21T05:51:42.226Z,10.03
2023-04-21T05:54:10.119Z,10.12
2023-04-21T05:56:37.951Z,10.18
2023-04-21T05:59:07.121Z,10.27
2023-04-21T06:01:35.053Z,10.41
2023-04-21T06:04:03.222Z,10.60
2023-04-21T06:06:31.922Z,10.77
2023-04-21T06:09:00.062Z,10.90
2023-04-21T06:11:28.028Z,11.00
2023-04-21T06:13:58.566Z,11.14
2023-04-21T06:16:27.273Z,11.24
2023-04-21T06:18:55.378Z,11.39
2023-04-21T06:21:23.208Z,11.54
2023-04-21T06:23:51.292Z,11.71
2023-04-21T06:26:19.152Z,11.80
2023-04-21T06:28:47.115Z,11.97
2023-04-21T06:31:15.781Z,12.09
2023-04-21T06:33:44.093Z,12.20
2023-04-21T06:36:12.051Z,12.31
2023-04-21T06:38:41.762Z,12.47
2023-04-21T06:41:10.543Z,12.60
2023-04-21T06:43:38.416Z,12.73
2023-04-21T06:46:06.395Z,12.84
2023-04-21T06:48:34.308Z,12.97
2023-04-21T06:51:02.886Z,13.07
2023-04-21T06:53:31.338Z,13.22
2023-04-21T06:55:59.391Z,13.34
2023-04-21T06:58:27.320Z,13.46
2023-04-21T07:00:55.339Z,13.55
2023-04-21T07:03:23.276Z,13.63
2023-04-21T07:05:51.615Z,13.78
2023-04-21T07:08:19.546Z,13.93
2023-04-21T07:10:47.493Z,14.04
2023-04-21T07:13:16.114Z,14.14
2023-04-21T07:15:43.975Z,14.19
2023-04-21T07:18:11.987Z,14.30
2023-04-21T07:20:40.058Z,14.35
2023-04-21T07:23:07.923Z,14.47
2023-04-21T07:25:35.800Z,14.59
2023-04-21T07:28:04.475Z,14.67
2023-04-21T07:30:32.452Z,14.81
2023-04-21T07:33:00.866Z,14.89
2023-04-21T07:35:28.883Z,15.01
2023-04-21T07:37:56.918Z,15.15
2023-04-21T07:40:24.977Z,15.23
2023-04-21T07:42:52.817Z,15.28
2023-04-21T07:45:21.083Z,15.32
2023-04-21T07:47:49.055Z,15.39
2023-04-21T07:50:17.266Z,15.43
2023-04-21T07:52:45.091Z,15.46
2023-04-21T07:55:12.954Z,15.59
2023-04-21T07:57:41.012Z,15.75
2023-04-21T08:00:10.505Z,15.86
2023-04-21T08:02:41.967Z,15.91
2023-04-21T08:05:10.832Z,15.94
2023-04-21T08:07:39.720Z,16.01
2023-04-21T08:10:08.770Z,16.11
2023-04-21T08:12:36.746Z,16.21
2023-04-21T08:15:07.761Z,16.28
2023-04-21T08:17:36.072Z,16.27
2023-04-21T08:20:05.664Z,16.28
2023-04-21T08:22:33.613Z,16.37
2023-04-21T08:25:01.453Z,16.40
2023-04-21T08:27:29.418Z,16.44
2023-04-21T08:29:57.290Z,16.56
2023-04-21T08:32:26.585Z,16.69
2023-04-21T08:34:54.842Z,16.81
2023-04-21T08:37:23.273Z,16.92
2023-04-21T08:39:51.356Z,17.00
2023-04-21T08:42:20.079Z,17.02
2023-04-21T08:44:48.019Z,17.04
2023-04-21T08:47:16.181Z,17.18
2023-04-21T08:49:47.275Z,17.21
2023-04-21T08:52:15.223Z,17.36
2023-04-21T08:54:43.428Z,17.41
2023-04-21T08:57:15.803Z,17.54
2023-04-21T08:59:45.654Z,17.69
2023-04-21T09:02:19.114Z,17.85
2023-04-21T09:04:54.943Z,18.00
2023-04-21T09:07:36.770Z,18.03
2023-04-21T09:10:06.455Z,18.06
2023-04-21T09:12:34.479Z,18.10
2023-04-21T09:15:06.436Z,18.13
2023-04-21T09:17:36.386Z,18.20
2023-04-21T09:20:24.904Z,18.30
2023-04-21T09:22:53.337Z,18.37
2023-04-21T09:25:21.835Z,18.39
2023-04-21T09:27:49.904Z,18.41
2023-04-21T09:30:20.938Z,18.45
2023-04-21T09:32:49.655Z,18.54
2023-04-21T09:35:17.598Z,18.61
2023-04-21T09:37:45.553Z,18.62
2023-04-21T09:40:15.090Z,18.56
2023-04-21T09:42:44.681Z,18.55
2023-04-21T09:47:51.002Z,18.66
2023-04-21T09:50:41.802Z,18.71
2023-04-21T09:53:15.270Z,18.74
2023-04-21T09:55:46.645Z,18.75
2023-04-21T09:58:19.157Z,18.74
2023-04-21T10:00:47.721Z,18.81
2023-04-21T10:03:18.891Z,18.83
2023-04-21T10:05:47.093Z,18.86
2023-04-21T10:08:17.227Z,18.92
2023-04-21T10:10:46.063Z,19.00
2023-04-21T10:13:17.378Z,19.03
2023-04-21T10:15:45.389Z,19.11
2023-04-21T10:18:17.766Z,19.26
2023-04-21T10:20:59.032Z,19.33
2023-04-21T10:23:43.818Z,19.29
2023-04-21T10:26:29.789Z,19.24
2023-04-21T10:29:06.345Z,19.21
2023-04-21T10:31:51.371Z,19.20
2023-04-21T10:34:22.414Z,19.25
2023-04-21T10:36:56.584Z,19.39
2023-04-21T10:39:29.552Z,19.47
2023-04-21T10:42:20.934Z,19.62
2023-04-21T10:45:16.281Z,19.67
2023-04-21T10:47:49.108Z,19.54
2023-04-21T10:50:39.537Z,19.56
2023-04-21T10:53:11.390Z,19.59
2023-04-21T10:55:42.345Z,19.73
2023-04-21T10:58:10.482Z,19.73
2023-04-21T11:00:39.320Z,19.68
2023-04-21T11:03:08.256Z,19.71
2023-04-21T11:05:38.976Z,19.77
2023-04-21T11:08:15.851Z,19.73
2023-04-21T11:10:47.076Z,19.76
2023-04-21T11:13:15.666Z,19.78
2023-04-21T11:15:57.590Z,19.87
2023-04-21T11:18:37.535Z,19.96
2023-04-21T11:21:13.899Z,20.03
2023-04-21T11:23:47.971Z,20.10
2023-04-21T11:26:16.402Z,20.12
2023-04-21T11:28:47.900Z,20.24
2023-04-21T11:31:16.273Z,20.30
2023-04-21T11:33:44.325Z,20.33
2023-04-21T11:36:12.215Z,20.34
2023-04-21T11:38:41.487Z,20.40
2023-04-21T11:41:10.730Z,20.37
2023-04-21T11:43:39.062Z,20.33
2023-04-21T11:46:17.991Z,20.31
2023-04-21T11:48:46.708Z,20.30
2023-04-21T11:51:15.965Z,20.28
2023-04-21T11:53:47.020Z,20.23
2023-04-21T11:56:20.075Z,20.16
2023-04-21T11:58:51.605Z,20.21
2023-04-21T12:01:21.652Z,20.24
2023-04-21T12:03:54.866Z,20.29
2023-04-21T12:06:24.751Z,20.38
2023-04-21T12:09:01.240Z,20.41
2023-04-21T12:11:30.723Z,20.43
2023-04-21T12:13:59.329Z,20.35
2023-04-21T12:16:29.172Z,20.35
2023-04-21T12:18:57.916Z,20.42
2023-04-21T12:21:29.485Z,20.48
2023-04-21T12:23:57.595Z,20.51
2023-04-21T12:26:25.436Z,20.51
2023-04-21T12:28:53.717Z,20.53
2023-04-21T12:31:21.832Z,20.57
2023-04-21T12:33:49.751Z,20.57
2023-04-21T12:36:17.683Z,20.60
2023-04-21T12:38:45.655Z,20.69
2023-04-21T12:41:13.588Z,20.78
2023-04-21T12:43:41.602Z,20.77
2023-04-21T12:46:09.590Z,20.76
2023-04-21T12:48:38.007Z,20.76
2023-04-21T12:51:05.987Z,20.79
2023-04-21T12:53:34.059Z,20.80
2023-04-21T12:56:05.152Z,20.87
2023-04-21T12:58:33.789Z,20.83
2023-04-21T13:01:01.826Z,20.85
2023-04-21T13:03:30.037Z,20.81
2023-04-21T13:05:58.190Z,20.78
2023-04-21T13:08:26.363Z,20.85
2023-04-21T13:10:55.432Z,20.83
2023-04-21T13:13:23.474Z,20.72
2023-04-21T13:15:51.444Z,20.55
2023-04-21T13:18:19.438Z,20.51
2023-04-21T13:20:47.256Z,20.48
2023-04-21T13:23:16.165Z,20.42
2023-04-21T13:25:45.620Z,20.45
2023-04-21T13:28:17.051Z,20.48
2023-04-21T13:30:45.768Z,20.40
2023-04-21T13:33:13.995Z,20.33
2023-04-21T13:35:41.966Z,20.33
2023-04-21T13:38:09.985Z,20.28
2023-04-21T13:40:37.938Z,20.26
2023-04-21T13:43:05.944Z,20.29
2023-04-21T13:45:33.909Z,20.29
2023-04-21T13:48:02.011Z,20.39
2023-04-21T13:50:30.064Z,20.51
2023-04-21T13:52:57.995Z,20.54
2023-04-21T13:55:25.986Z,20.53
2023-04-21T13:57:54.383Z,20.42
2023-04-21T14:00:22.586Z,20.37
2023-04-21T14:02:50.644Z,20.29
2023-04-21T14:05:18.999Z,20.18
2023-04-21T14:07:47.127Z,20.03
2023-04-21T14:10:15.095Z,20.07
2023-04-21T14:12:45.069Z,20.09
2023-04-21T14:15:13.686Z,20.11
2023-04-21T14:17:42.114Z,20.04
2023-04-21T14:20:11.007Z,19.98
2023-04-21T14:22:38.927Z,19.98
2023-04-21T14:25:07.185Z,19.97
2023-04-21T14:27:35.364Z,19.94
2023-04-21T14:30:03.542Z,20.00
2023-04-21T14:32:31.498Z,20.05
2023-04-21T14:35:00.754Z,20.06
2023-04-21T14:37:29.001Z,20.10
2023-04-21T14:39:56.976Z,20.17
2023-04-21T14:42:24.868Z,20.23
2023-04-21T14:44:52.767Z,20.26
2023-04-21T14:47:22.227Z,20.30
2023-04-21T14:49:55.144Z,20.34
2023-04-21T14:52:27.205Z,20.22
2023-04-21T14:54:55.395Z,20.15
2023-04-21T14:57:25.107Z,20.13
2023-04-21T14:59:53.564Z,20.18
2023-04-21T15:02:22.453Z,20.41
2023-04-21T15:04:51.913Z,20.52
2023-04-21T15:07:24.249Z,20.58
2023-04-21T15:09:55.412Z,20.68
2023-04-21T15:12:23.617Z,20.91
2023-04-21T15:14:51.802Z,21.12
2023-04-21T15:17:19.747Z,21.20
2023-04-21T15:19:47.683Z,21.18
2023-04-21T15:22:16.374Z,21.19
2023-04-21T15:24:45.584Z,21.21
2023-04-21T15:27:13.457Z,21.23
2023-04-21T15:29:41.457Z,21.24
2023-04-21T15:32:09.770Z,21.41
2023-04-21T15:34:37.678Z,21.73
2023-04-21T15:37:05.689Z,21.74
2023-04-21T15:39:33.676Z,21.52
2023-04-21T15:42:02.005Z,21.57
2023-04-21T15:44:30.048Z,22.32
2023-04-21T15:46:58.066Z,23.92
2023-04-21T15:49:26.407Z,25.96
2023-04-21T15:51:55.956Z,27.73
2023-04-21T15:54:24.463Z,28.57
2023-04-21T15:56:52.497Z,29.53
2023-04-21T15:59:22.408Z,30.43
2023-04-21T16:01:52.828Z,30.54
2023-04-21T16:04:21.005Z,31.05
2023-04-21T16:06:49.739Z,31.81
2023-04-21T16:09:18.269Z,32.30
2023-04-21T16:11:46.141Z,32.48
2023-04-21T16:14:16.603Z,32.89
2023-04-21T16:16:45.937Z,33.69
2023-04-21T16:19:14.070Z,34.25
2023-04-21T16:21:42.580Z,34.35
2023-04-21T16:24:11.254Z,34.48
2023-04-21T16:26:39.425Z,34.62
2023-04-21T16:29:07.316Z,34.87
2023-04-21T16:31:35.315Z,35.31
2023-04-21T16:34:03.229Z,35.80
2023-04-21T16:36:32.607Z,35.91
2023-04-21T16:39:00.746Z,35.83
2023-04-21T16:41:30.455Z,35.39
2023-04-21T16:43:58.551Z,35.20
2023-04-21T16:46:26.646Z,35.18
2023-04-21T16:48:54.813Z,35.23
2023-04-21T16:51:22.792Z,34.89
2023-04-21T16:53:51.065Z,34.40
2023-04-21T16:56:20.476Z,33.92
2023-04-21T16:58:48.450Z,33.77
2023-04-21T17:01:16.506Z,33.49
2023-04-21T17:03:44.671Z,33.07
2023-04-21T17:06:17.417Z,32.46
2023-04-21T17:08:45.490Z,31.89
2023-04-21T17:11:13.460Z,31.48
2023-04-21T17:13:41.324Z,31.16
2023-04-21T17:16:09.302Z,30.75
2023-04-21T17:18:37.311Z,30.26
2023-04-21T17:21:06.298Z,29.62
2023-04-21T17:23:34.439Z,29.16
2023-04-21T17:26:03.722Z,28.55
2023-04-21T17:28:32.265Z,27.62
2023-04-21T17:31:13.619Z,26.47
2023-04-21T17:33:43.084Z,25.47
2023-04-21T17:36:12.510Z,24.69
2023-04-21T17:38:42.929Z,23.91
2023-04-21T17:41:11.662Z,23.24
2023-04-21T17:43:39.759Z,22.63
2023-04-21T17:46:07.905Z,22.00
2023-04-21T17:48:36.008Z,21.54
2023-04-21T17:51:04.150Z,21.09
2023-04-21T17:53:32.375Z,20.57
2023-04-21T17:56:00.395Z,20.11
2023-04-21T17:58:28.749Z,19.67
2023-04-21T18:00:57.142Z,19.26
2023-04-21T18:03:25.790Z,18.86
2023-04-21T18:05:55.564Z,18.47
2023-04-21T18:08:23.702Z,18.06
2023-04-21T18:10:51.704Z,17.69
2023-04-21T18:13:19.503Z,17.31
2023-04-21T18:15:47.456Z,16.95
2023-04-21T18:18:15.414Z,16.61
2023-04-21T18:20:43.405Z,16.25
2023-04-21T18:23:11.636Z,15.92
2023-04-21T18:25:42.630Z,15.63
2023-04-21T18:28:13.011Z,15.30
2023-04-21T18:30:41.733Z,14.96
2023-04-21T18:33:11.726Z,14.69
2023-04-21T18:35:42.010Z,14.42
2023-04-21T18:38:11.898Z,14.22
2023-04-21T18:40:40.927Z,14.02
2023-04-21T18:43:10.749Z,13.84
2023-04-21T18:45:38.837Z,13.66
2023-04-21T18:48:06.789Z,13.49
2023-04-21T18:50:39.877Z,13.29
2023-04-21T18:53:09.237Z,13.12
2023-04-21T18:55:37.801Z,12.96
2023-04-21T18:58:07.619Z,12.81
2023-04-21T19:00:38.977Z,12.64
2023-04-21T19:03:08.448Z,12.48
2023-04-21T19:05:37.803Z,12.36
2023-04-21T19:08:06.066Z,12.22
2023-04-21T19:10:38.014Z,12.09
2023-04-21T19:13:06.366Z,11.94
2023-04-21T19:15:35.225Z,11.82
2023-04-21T19:18:03.180Z,11.74
2023-04-21T19:20:32.495Z,11.65
2023-04-21T19:23:00.477Z,11.53
2023-04-21T19:25:28.376Z,11.42
2023-04-21T19:27:56.424Z,11.29
2023-04-21T19:30:24.344Z,11.15
2023-04-21T19:32:52.355Z,11.06
2023-04-21T19:35:21.150Z,10.95
2023-04-21T19:37:49.708Z,10.82
2023-04-21T19:40:17.568Z,10.73
2023-04-21T19:42:45.639Z,10.67
2023-04-21T19:45:13.622Z,10.59
2023-04-21T19:47:41.541Z,10.45
2023-04-21T19:50:09.900Z,10.38
2023-04-21T19:52:37.748Z,10.31
2023-04-21T19:55:05.819Z,10.24
2023-04-21T19:57:33.793Z,10.16
2023-04-21T20:00:02.230Z,10.10
2023-04-21T20:02:40.832Z,9.99
2023-04-21T20:05:09.527Z,9.89
2023-04-21T20:07:38.273Z,9.84
2023-04-21T20:10:07.286Z,9.79
2023-04-21T20:12:35.463Z,9.70
2023-04-21T20:15:03.492Z,9.66
2023-04-21T20:17:31.921Z,9.60
2023-04-21T20:19:59.938Z,9.57
2023-04-21T20:22:27.869Z,9.47
2023-04-21T20:24:58.128Z,9.43
2023-04-21T20:27:26.980Z,9.35
2023-04-21T20:29:54.893Z,9.30
2023-04-21T20:32:22.837Z,9.29
2023-04-21T20:34:53.527Z,9.26
2023-04-21T20:37:23.251Z,9.18
2023-04-21T20:39:51.607Z,9.20
2023-04-21T20:42:20.182Z,9.05
2023-04-21T20:44:48.287Z,8.97
2023-04-21T20:47:17.636Z,8.91
2023-04-21T20:49:47.533Z,8.85
2023-04-21T20:52:16.069Z,8.84
2023-04-21T20:54:44.080Z,8.68
2023-04-21T20:57:12.316Z,8.58
2023-04-21T20:59:40.603Z,8.47
2023-04-21T21:02:08.853Z,8.44
2023-04-21T21:04:37.512Z,8.43
2023-04-21T21:07:06.373Z,8.45
2023-04-21T21:09:34.488Z,8.46
2023-04-21T21:12:02.443Z,8.47
2023-04-21T21:14:30.370Z,8.49
2023-04-21T21:16:58.586Z,8.48
2023-04-21T21:19:26.884Z,8.45
2023-04-21T21:21:54.811Z,8.40
2023-04-21T21:24:22.709Z,8.36
2023-04-21T21:26:50.972Z,8.30
2023-04-21T21:29:18.926Z,8.24
2023-04-21T21:31:46.780Z,8.17
2023-04-21T21:34:14.656Z,8.10
2023-04-21T21:36:42.868Z,8.08
2023-04-21T21:39:11.511Z,8.04
2023-04-21T21:41:39.882Z,7.97
2023-04-21T21:44:08.043Z,7.98
2023-04-21T21:46:36.504Z,7.96
2023-04-21T21:49:04.436Z,7.93
2023-04-21T21:51:32.503Z,7.87
2023-04-21T21:54:00.518Z,7.82
2023-04-21T21:56:28.624Z,7.80
2023-04-21T21:58:56.644Z,7.78
2023-04-21T22:01:24.585Z,7.72
2023-04-21T22:03:53.865Z,7.71
2023-04-21T22:06:26.803Z,7.69
2023-04-21T22:08:55.194Z,7.72
2023-04-21T22:11:23.284Z,7.83
2023-04-21T22:13:51.583Z,7.72
2023-04-21T22:16:19.474Z,7.62
2023-04-21T22:18:48.439Z,7.67
2023-04-21T22:21:16.514Z,7.62
2023-04-21T22:23:44.433Z,7.61
2023-04-21T22:26:12.332Z,7.49
2023-04-21T22:28:41.942Z,7.49
2023-04-21T22:31:10.625Z,7.52
2023-04-21T22:33:38.606Z,7.39
2023-04-21T22:36:08.524Z,7.36
2023-04-21T22:38:38.593Z,7.35
2023-04-21T22:41:06.797Z,7.32
2023-04-21T22:43:34.927Z,7.26
2023-04-21T22:46:02.962Z,7.21
2023-04-21T22:48:32.833Z,7.19
2023-04-21T22:51:01.808Z,7.17
2023-04-21T22:53:29.864Z,7.17
2023-04-21T22:55:57.849Z,7.10
2023-04-21T22:58:26.504Z,7.01
2023-04-21T23:00:54.511Z,6.98
2023-04-21T23:03:23.732Z,6.96
2023-04-21T23:05:51.900Z,6.93
2023-04-21T23:08:19.754Z,6.92
2023-04-21T23:10:47.717Z,6.84
2023-04-21T23:13:15.658Z,6.71
2023-04-21T23:15:43.489Z,6.63
2023-04-21T23:18:11.470Z,6.62
2023-04-21T23:20:39.496Z,6.64
2023-04-21T23:23:07.446Z,6.62
2023-04-21T23:25:36.266Z,6.63
2023-04-21T23:28:04.116Z,6.61
2023-04-21T23:30:32.099Z,6.59
2023-04-21T23:33:00.163Z,6.57
2023-04-21T23:35:28.267Z,6.52
2023-04-21T23:37:56.252Z,6.50
2023-04-21T23:40:24.278Z,6.46
2023-04-21T23:42:52.135Z,6.44
2023-04-21T23:45:20.095Z,6.39
2023-04-21T23:47:48.096Z,6.36
2023-04-21T23:50:15.954Z,6.31
2023-04-21T23:52:44.843Z,6.23
2023-04-21T23:55:12.806Z,6.16
2023-04-21T23:57:40.746Z,6.12
